Time;durP1;ratioP1;P1;durP2;ratioP2;P2;SDS_P1;SDS_P2;PMS_P1;PMS_P2;Temp;Humidity;BMP_temperature;BMP_pressure;BME280_temperature;BME280_humidity;BME280_pressure;Samples;Min_cycle;Max_cycle;Signal;HPM_P1;HPM_P2
2022/01/13 00:01:30;;;;;;;51.73;23.80;;;0.50;99.90;;;;;;5048254;28;20208;-69
2022/01/13 00:03:57;;;;;;;49.80;24.03;;;0.50;99.90;;;;;;5052572;28;20210;-69
2022/01/13 00:06:25;;;;;;;55.67;24.67;;;0.50;99.90;;;;;;5052033;28;20216;-69
2022/01/13 00:08:53;;;;;;;53.47;24.90;;;0.50;99.90;;;;;;5053150;28;20555;-69
2022/01/13 00:11:20;;;;;;;55.53;25.57;;;0.60;99.90;;;;;;5052296;28;20240;-69
2022/01/13 00:13:50;;;;;;;53.97;25.00;;;0.60;99.90;;;;;;5052927;28;20214;-68
2022/01/13 00:16:39;;;;;;;52.93;23.43;;;0.70;99.90;;;;;;5050902;28;20236;-69
2022/01/13 00:19:19;;;;;;;48.93;22.87;;;0.70;99.90;;;;;;5053095;28;20198;-70
2022/01/13 00:21:57;;;;;;;49.53;22.83;;;0.60;99.90;;;;;;5061621;28;20206;-69
2022/01/13 00:24:24;;;;;;;45.67;21.73;;;0.60;99.90;;;;;;5053553;28;20210;-69
2022/01/13 00:26:53;;;;;;;44.23;22.77;;;0.60;99.90;;;;;;5052944;28;20301;-69
2022/01/13 00:29:25;;;;;;;45.87;22.50;;;0.60;99.90;;;;;;5053243;28;20210;-69
2022/01/13 00:31:52;;;;;;;45.13;23.97;;;0.60;99.90;;;;;;5052621;28;20221;-69
2022/01/13 00:34:19;;;;;;;48.87;23.43;;;0.60;99.90;;;;;;5052611;28;20212;-69
2022/01/13 00:36:47;;;;;;;48.97;22.63;;;0.60;99.90;;;;;;5052558;28;20245;-69
2022/01/13 00:39:15;;;;;;;45.67;22.53;;;0.50;99.90;;;;;;5045864;28;20213;-69
2022/01/13 00:41:42;;;;;;;52.77;23.47;;;0.50;99.90;;;;;;5052549;28;20224;-69
2022/01/13 00:44:09;;;;;;;45.73;23.13;;;0.60;99.90;;;;;;5048149;28;20208;-69
2022/01/13 00:46:43;;;;;;;48.27;21.73;;;0.60;99.90;;;;;;5051310;28;20301;-69
2022/01/13 00:49:10;;;;;;;44.17;21.87;;;0.50;99.90;;;;;;5049250;28;20285;-69
2022/01/13 00:51:37;;;;;;;41.83;20.60;;;0.50;99.90;;;;;;5051702;28;20220;-69
2022/01/13 00:54:07;;;;;;;39.53;20.23;;;0.50;99.90;;;;;;5053472;28;20209;-69
2022/01/13 00:56:34;;;;;;;35.30;19.30;;;0.50;99.90;;;;;;5052634;28;20265;-69
2022/01/13 00:59:03;;;;;;;36.63;19.57;;;0.60;99.90;;;;;;5053178;28;20208;-69
2022/01/13 01:01:30;;;;;;;37.97;19.43;;;0.50;99.90;;;;;;5052637;28;20202;-70
2022/01/13 01:03:57;;;;;;;38.67;19.80;;;0.50;99.90;;;;;;5052891;28;20214;-69
2022/01/13 01:06:24;;;;;;;36.70;17.70;;;0.60;99.90;;;;;;5046833;28;20213;-69
2022/01/13 01:08:50;;;;;;;36.10;18.23;;;0.50;99.90;;;;;;5042891;28;20518;-69
2022/01/13 01:11:19;;;;;;;37.57;19.40;;;0.60;99.90;;;;;;5051277;28;20783;-69
2022/01/13 01:13:48;;;;;;;37.07;16.93;;;0.60;99.90;;;;;;5047320;28;20221;-69
2022/01/13 01:16:17;;;;;;;34.23;17.10;;;0.60;99.90;;;;;;5052243;28;20215;-69
2022/01/13 01:18:53;;;;;;;34.23;18.50;;;0.60;99.90;;;;;;5049607;28;20210;-69
2022/01/13 01:21:52;;;;;;;39.83;18.77;;;0.60;99.90;;;;;;5052673;28;20220;-70
2022/01/13 01:24:53;;;;;;;40.43;18.23;;;0.60;99.90;;;;;;5052453;28;20202;-70
2022/01/13 01:27:22;;;;;;;38.00;17.93;;;0.50;99.90;;;;;;5043264;28;20606;-69
2022/01/13 01:29:56;;;;;;;40.47;18.37;;;0.60;99.90;;;;;;5056429;28;20604;-69
2022/01/13 01:32:24;;;;;;;40.80;18.33;;;0.60;99.90;;;;;;5063146;28;20564;-70
2022/01/13 01:35:01;;;;;;;40.80;18.60;;;0.60;99.90;;;;;;5053323;28;20325;-70
2022/01/13 01:37:30;;;;;;;39.60;16.97;;;0.50;99.90;;;;;;5049854;28;20298;-69
2022/01/13 01:39:59;;;;;;;34.83;17.50;;;0.50;99.90;;;;;;5055957;28;20201;-69
2022/01/13 01:42:28;;;;;;;33.77;16.90;;;0.50;99.90;;;;;;5053092;28;20573;-69
2022/01/13 01:44:58;;;;;;;32.03;17.07;;;0.50;99.90;;;;;;5055972;28;20201;-69
2022/01/13 01:47:27;;;;;;;35.73;16.53;;;0.50;99.90;;;;;;5056544;28;20259;-69
2022/01/13 01:49:58;;;;;;;30.43;15.00;;;0.50;99.90;;;;;;5057585;28;20206;-69
2022/01/13 01:52:26;;;;;;;32.53;16.07;;;0.50;99.90;;;;;;5056594;28;20644;-70
2022/01/13 01:54:54;;;;;;;32.37;15.60;;;0.50;99.90;;;;;;5056814;28;20213;-69
2022/01/13 01:57:23;;;;;;;33.17;15.70;;;0.50;99.90;;;;;;5056622;28;20237;-68
2022/01/13 01:59:53;;;;;;;29.77;14.63;;;0.50;99.90;;;;;;5056282;28;20663;-69
2022/01/13 02:02:21;;;;;;;34.97;15.57;;;0.50;99.90;;;;;;5057335;28;20224;-69
2022/01/13 02:04:48;;;;;;;30.33;14.77;;;0.50;99.90;;;;;;5055904;28;20744;-69
2022/01/13 02:07:15;;;;;;;31.70;15.37;;;0.50;99.90;;;;;;5056002;28;20285;-68
2022/01/13 02:09:48;;;;;;;35.00;15.93;;;0.50;99.90;;;;;;5054751;28;20212;-68
2022/01/13 02:12:27;;;;;;;30.83;15.80;;;0.50;99.90;;;;;;5055555;28;20241;-68
2022/01/13 02:14:59;;;;;;;33.80;15.57;;;0.50;99.90;;;;;;5055603;28;20207;-69
2022/01/13 02:17:28;;;;;;;37.17;16.50;;;0.50;99.90;;;;;;5053455;28;20218;-69
2022/01/13 02:19:58;;;;;;;34.70;16.00;;;0.50;99.90;;;;;;5047913;28;20582;-69
2022/01/13 02:22:26;;;;;;;36.53;15.87;;;0.50;99.90;;;;;;5052077;28;20210;-69
2022/01/13 02:24:55;;;;;;;38.60;17.07;;;0.50;99.90;;;;;;5056006;28;20205;-69
2022/01/13 02:27:22;;;;;;;38.47;17.03;;;0.50;99.90;;;;;;5054763;28;20610;-69
2022/01/13 02:29:49;;;;;;;35.70;17.73;;;0.50;99.90;;;;;;5054771;28;20213;-69
2022/01/13 02:32:16;;;;;;;38.07;16.73;;;0.50;99.90;;;;;;5053235;28;20206;-69
2022/01/13 02:34:43;;;;;;;36.13;18.20;;;0.50;99.90;;;;;;5054002;28;20214;-68
2022/01/13 02:37:10;;;;;;;38.07;16.70;;;0.50;99.90;;;;;;5050088;28;20232;-69
2022/01/13 02:39:40;;;;;;;35.70;16.33;;;0.50;99.90;;;;;;5065404;28;20205;-69
2022/01/13 02:42:12;;;;;;;40.17;16.17;;;0.50;99.90;;;;;;5055940;28;20205;-69
2022/01/13 02:44:48;;;;;;;42.33;17.63;;;0.50;99.90;;;;;;5053730;28;20576;-69
2022/01/13 02:47:34;;;;;;;35.10;17.33;;;0.50;99.90;;;;;;5051950;28;20205;-68
2022/01/13 02:50:02;;;;;;;38.40;16.40;;;0.50;99.90;;;;;;5056266;28;20202;-70
2022/01/13 02:52:28;;;;;;;40.70;15.77;;;0.50;99.90;;;;;;5055469;28;20349;-69
2022/01/13 02:54:57;;;;;;;40.47;16.87;;;0.50;99.90;;;;;;5056513;28;20286;-69
2022/01/13 02:57:24;;;;;;;38.10;16.93;;;0.50;99.90;;;;;;5056059;28;20233;-69
2022/01/13 02:59:51;;;;;;;40.53;17.23;;;0.50;99.90;;;;;;5055605;28;20210;-69
2022/01/13 03:02:17;;;;;;;40.37;16.63;;;0.50;99.90;;;;;;5053603;28;20248;-68
2022/01/13 03:04:48;;;;;;;39.47;17.60;;;0.50;99.90;;;;;;5053971;28;20206;-69
2022/01/13 03:07:16;;;;;;;33.50;15.27;;;0.50;99.90;;;;;;5053374;28;20210;-69
2022/01/13 03:09:43;;;;;;;40.27;16.53;;;0.50;99.90;;;;;;5055680;28;20501;-69
2022/01/13 03:12:12;;;;;;;35.30;15.40;;;0.50;99.90;;;;;;5052832;28;20242;-69
2022/01/13 03:14:39;;;;;;;42.67;15.50;;;0.50;99.90;;;;;;5051497;28;20221;-69
2022/01/13 03:17:06;;;;;;;39.17;15.13;;;0.50;99.90;;;;;;5050907;28;20206;-68
2022/01/13 03:19:33;;;;;;;29.90;14.23;;;0.50;99.90;;;;;;5055171;28;20217;-69
2022/01/13 03:22:00;;;;;;;36.20;16.00;;;0.60;99.90;;;;;;5054779;28;20665;-68
2022/01/13 03:24:30;;;;;;;38.93;15.50;;;0.50;99.90;;;;;;5054555;28;20252;-69
2022/01/13 03:26:57;;;;;;;36.30;16.37;;;0.60;99.90;;;;;;5053585;28;20210;-69
2022/01/13 03:29:26;;;;;;;39.77;16.07;;;0.60;99.90;;;;;;5054127;28;20205;-69
2022/01/13 03:31:53;;;;;;;38.97;16.27;;;0.60;99.90;;;;;;5053887;28;20209;-69
2022/01/13 03:34:19;;;;;;;33.47;15.37;;;0.60;99.90;;;;;;5053057;28;20212;-68
2022/01/13 03:36:47;;;;;;;34.13;15.07;;;0.60;99.90;;;;;;5041646;28;20207;-69
2022/01/13 03:39:14;;;;;;;31.97;14.00;;;0.60;99.90;;;;;;5054863;28;20240;-69
2022/01/13 03:41:41;;;;;;;33.70;15.47;;;0.70;99.90;;;;;;5046741;28;20206;-69
2022/01/13 03:44:17;;;;;;;32.07;13.83;;;0.70;99.90;;;;;;5054614;28;20206;-69
2022/01/13 03:46:46;;;;;;;37.37;14.53;;;0.60;99.90;;;;;;5051846;28;20198;-70
2022/01/13 03:49:12;;;;;;;32.00;13.53;;;0.70;99.90;;;;;;5058686;28;20277;-70
2022/01/13 03:52:34;;;;;;;30.43;13.33;;;0.70;99.90;;;;;;5059632;28;20210;-69
2022/01/13 03:56:11;;;;;;;31.37;12.60;;;0.70;99.90;;;;;;5043353;28;20316;-69
2022/01/13 03:59:12;;;;;;;27.67;12.40;;;0.70;99.90;;;;;;5053633;28;20580;-69
2022/01/13 04:02:02;;;;;;;25.27;11.80;;;0.60;99.90;;;;;;5046175;28;20217;-69
2022/01/13 04:04:30;;;;;;;23.07;11.23;;;0.70;99.90;;;;;;5044350;28;20198;-69
2022/01/13 04:07:17;;;;;;;26.37;12.30;;;0.60;99.90;;;;;;5051173;28;20587;-69
2022/01/13 04:10:20;;;;;;;26.80;12.13;;;0.60;99.90;;;;;;5045992;28;20590;-70
2022/01/13 04:12:46;;;;;;;30.13;13.80;;;0.70;99.90;;;;;;5049537;28;20839;-69
2022/01/13 04:15:17;;;;;;;21.27;10.63;;;0.70;99.90;;;;;;5052285;28;20233;-69
2022/01/13 04:17:46;;;;;;;25.40;12.73;;;0.70;99.90;;;;;;5052662;28;20206;-68
2022/01/13 04:20:13;;;;;;;28.30;13.00;;;0.70;99.90;;;;;;5052310;28;20206;-69
2022/01/13 04:22:40;;;;;;;24.80;13.23;;;0.70;99.90;;;;;;5052578;28;20578;-69
2022/01/13 04:25:08;;;;;;;28.73;12.53;;;0.70;99.90;;;;;;5042639;28;20620;-69
2022/01/13 04:27:41;;;;;;;30.30;12.73;;;0.80;99.90;;;;;;5052045;28;20284;-69
2022/01/13 04:30:34;;;;;;;32.73;13.03;;;0.80;99.90;;;;;;5051842;28;20209;-69
2022/01/13 04:33:03;;;;;;;24.93;12.33;;;0.80;99.90;;;;;;5050585;28;20205;-69
2022/01/13 04:35:31;;;;;;;25.97;12.20;;;0.80;99.90;;;;;;5052442;28;20726;-68
2022/01/13 04:37:58;;;;;;;26.50;12.77;;;0.80;99.90;;;;;;5051749;28;20260;-68
2022/01/13 04:40:25;;;;;;;26.40;12.27;;;0.80;99.90;;;;;;5045833;28;20505;-68
2022/01/13 04:42:55;;;;;;;28.93;12.47;;;0.80;99.90;;;;;;5050834;28;20307;-68
2022/01/13 04:45:23;;;;;;;28.57;12.30;;;0.80;99.90;;;;;;5051119;28;20206;-68
2022/01/13 04:47:53;;;;;;;32.77;12.63;;;0.80;99.90;;;;;;5051216;28;20197;-69
2022/01/13 04:50:22;;;;;;;30.03;12.93;;;0.80;99.90;;;;;;5051731;28;20206;-68
2022/01/13 04:52:49;;;;;;;19.97;11.13;;;0.90;99.90;;;;;;5051827;28;20601;-68
2022/01/13 04:55:22;;;;;;;24.33;11.20;;;0.90;99.90;;;;;;5050362;28;20206;-68
2022/01/13 04:57:49;;;;;;;23.53;11.50;;;0.90;99.90;;;;;;5050182;28;20317;-68
2022/01/13 05:00:16;;;;;;;21.57;11.57;;;0.90;99.90;;;;;;5054260;28;20216;-68
2022/01/13 05:02:44;;;;;;;22.13;12.07;;;0.90;99.90;;;;;;5058294;28;20197;-67
2022/01/13 05:05:11;;;;;;;22.70;11.00;;;0.90;99.90;;;;;;5050984;28;20222;-69
2022/01/13 05:07:40;;;;;;;20.93;10.27;;;0.90;99.90;;;;;;5051171;28;20237;-69
2022/01/13 05:10:08;;;;;;;22.10;10.80;;;0.90;99.90;;;;;;5051125;28;20698;-69
2022/01/13 05:12:41;;;;;;;20.27;10.00;;;0.90;99.90;;;;;;5050722;28;20320;-68
2022/01/13 05:15:10;;;;;;;18.53;9.60;;;0.90;99.90;;;;;;5043918;28;20259;-68
2022/01/13 05:20:36;;;;;;;18.17;8.63;;;0.90;99.90;;;;;;5035950;28;20206;-68
2022/01/13 05:23:05;;;;;;;16.13;8.80;;;0.90;99.90;;;;;;5049440;28;20231;-68
2022/01/13 05:25:32;;;;;;;14.30;7.97;;;1.00;99.90;;;;;;5044636;28;20272;-69
2022/01/13 05:27:59;;;;;;;16.87;9.40;;;0.90;99.90;;;;;;5049225;28;20198;-69
2022/01/13 05:30:26;;;;;;;14.77;8.97;;;0.90;99.90;;;;;;5051139;28;20703;-68
2022/01/13 05:32:53;;;;;;;12.17;7.67;;;1.00;99.90;;;;;;5050734;28;20217;-69
2022/01/13 05:35:20;;;;;;;17.00;9.23;;;1.00;99.90;;;;;;5050794;28;20242;-69
2022/01/13 05:37:47;;;;;;;15.37;8.37;;;1.00;99.90;;;;;;5050538;28;20224;-69
2022/01/13 05:40:16;;;;;;;13.90;7.73;;;1.00;99.90;;;;;;5041929;28;20214;-69
2022/01/13 05:42:43;;;;;;;17.13;8.23;;;1.00;99.90;;;;;;5047817;28;20256;-68
2022/01/13 05:45:15;;;;;;;17.60;8.70;;;1.00;99.90;;;;;;5051135;28;20212;-68
2022/01/13 05:47:42;;;;;;;12.53;7.93;;;1.00;99.90;;;;;;5050981;28;20205;-69
2022/01/13 05:50:10;;;;;;;16.73;8.03;;;0.90;99.90;;;;;;5050499;28;20839;-69
2022/01/13 05:52:37;;;;;;;13.57;8.30;;;0.90;99.90;;;;;;5051298;28;20201;-69
2022/01/13 05:55:06;;;;;;;19.07;8.60;;;0.90;99.90;;;;;;5050102;28;20206;-68
2022/01/13 05:57:34;;;;;;;12.80;7.73;;;1.00;99.90;;;;;;5050917;28;20582;-68
2022/01/13 06:00:01;;;;;;;12.67;7.57;;;1.00;99.90;;;;;;5050663;28;20225;-68
2022/01/13 06:02:27;;;;;;;15.70;8.27;;;1.00;99.90;;;;;;5051025;28;20202;-69
2022/01/13 06:04:54;;;;;;;12.17;7.50;;;1.00;99.90;;;;;;5050045;28;20664;-69
2022/01/13 06:07:21;;;;;;;13.93;8.30;;;1.00;99.90;;;;;;5057652;28;20681;-69
2022/01/13 06:09:48;;;;;;;13.23;7.87;;;1.00;99.90;;;;;;5060991;28;20639;-69
2022/01/13 06:12:16;;;;;;;15.37;8.50;;;1.00;99.90;;;;;;5050869;28;20244;-69
2022/01/13 06:14:45;;;;;;;14.43;8.13;;;1.00;99.90;;;;;;5051549;28;20210;-69
2022/01/13 06:17:12;;;;;;;13.80;7.70;;;1.00;99.90;;;;;;5053300;28;20292;-68
2022/01/13 06:19:39;;;;;;;14.03;8.27;;;1.00;99.90;;;;;;5054305;28;20251;-69
2022/01/13 06:22:05;;;;;;;14.83;8.37;;;1.00;99.90;;;;;;5053427;28;20202;-68
2022/01/13 06:24:32;;;;;;;12.70;7.33;;;1.10;99.90;;;;;;5053971;28;20209;-70
2022/01/13 06:27:00;;;;;;;14.30;8.13;;;1.10;99.90;;;;;;5054969;28;20202;-68
2022/01/13 06:29:27;;;;;;;15.23;8.20;;;1.10;99.90;;;;;;5054291;28;20210;-68
2022/01/13 06:31:56;;;;;;;13.53;7.93;;;1.10;99.90;;;;;;5048471;28;20232;-67
2022/01/13 06:34:23;;;;;;;14.77;7.80;;;1.10;99.90;;;;;;5049333;28;20297;-68
2022/01/13 06:36:50;;;;;;;13.67;7.87;;;1.10;99.90;;;;;;5053497;28;20639;-69
2022/01/13 06:39:17;;;;;;;12.87;6.77;;;1.10;99.90;;;;;;5051983;28;20222;-69
2022/01/13 06:41:44;;;;;;;13.60;7.97;;;1.10;99.90;;;;;;5054745;28;20350;-70
2022/01/13 06:44:10;;;;;;;15.87;8.60;;;1.10;99.90;;;;;;5044455;28;20218;-72
2022/01/13 06:46:37;;;;;;;13.73;8.43;;;1.10;99.90;;;;;;5046894;28;20334;-69
2022/01/13 06:49:06;;;;;;;14.23;8.83;;;1.10;99.90;;;;;;5055136;28;20194;-69
2022/01/13 06:51:32;;;;;;;13.00;8.40;;;1.10;99.90;;;;;;5044551;28;20274;-69
2022/01/13 06:53:59;;;;;;;12.40;7.70;;;1.20;99.90;;;;;;5054735;28;20209;-70
2022/01/13 06:56:26;;;;;;;13.30;7.87;;;1.20;99.90;;;;;;5051137;28;20220;-72
2022/01/13 06:58:54;;;;;;;12.43;7.23;;;1.20;99.90;;;;;;5053949;28;20229;-68
2022/01/13 07:01:22;;;;;;;15.37;8.33;;;1.20;99.90;;;;;;5046686;28;20210;-68
2022/01/13 07:03:49;;;;;;;14.10;7.73;;;1.20;99.90;;;;;;5053917;28;20202;-69
2022/01/13 07:06:18;;;;;;;11.93;8.33;;;1.20;99.90;;;;;;5049789;28;20222;-69
2022/01/13 07:08:45;;;;;;;13.30;8.53;;;1.20;99.90;;;;;;5052033;28;20194;-70
2022/01/13 07:11:12;;;;;;;14.80;8.20;;;1.30;99.90;;;;;;5053068;28;20316;-70
2022/01/13 07:13:39;;;;;;;12.13;8.17;;;1.30;99.90;;;;;;5053231;28;20563;-69
2022/01/13 07:16:06;;;;;;;11.47;8.43;;;1.30;99.90;;;;;;5039835;28;20648;-69
2022/01/13 07:18:38;;;;;;;11.57;6.97;;;1.30;99.90;;;;;;5052050;28;20408;-71
2022/01/13 07:21:06;;;;;;;15.87;8.67;;;1.30;99.90;;;;;;5053593;28;20194;-69
2022/01/13 07:23:36;;;;;;;11.83;7.67;;;1.30;99.90;;;;;;5054828;28;20210;-69
2022/01/13 07:26:03;;;;;;;14.43;8.53;;;1.30;99.90;;;;;;5048135;28;20582;-69
2022/01/13 07:28:30;;;;;;;14.23;8.97;;;1.30;99.90;;;;;;5052476;28;20304;-69
2022/01/13 07:30:58;;;;;;;15.23;8.93;;;1.30;99.90;;;;;;5053173;28;20577;-69
2022/01/13 07:33:25;;;;;;;14.13;9.00;;;1.30;99.90;;;;;;5050987;28;20210;-69
2022/01/13 07:35:52;;;;;;;13.47;8.47;;;1.40;99.90;;;;;;5054517;28;20210;-70
2022/01/13 07:38:19;;;;;;;17.63;9.57;;;1.40;99.90;;;;;;5052867;28;20233;-69
2022/01/13 07:40:47;;;;;;;14.07;9.10;;;1.40;99.90;;;;;;5053983;28;20269;-68
2022/01/13 07:43:16;;;;;;;15.60;9.97;;;1.40;99.90;;;;;;5048784;28;20305;-70
2022/01/13 07:45:43;;;;;;;15.33;9.63;;;1.40;99.90;;;;;;5046065;28;20202;-70
2022/01/13 07:48:10;;;;;;;14.03;8.87;;;1.50;99.90;;;;;;5049545;28;20206;-69
2022/01/13 07:50:37;;;;;;;15.00;9.77;;;1.50;99.90;;;;;;5053072;28;20684;-69
2022/01/13 07:53:04;;;;;;;17.37;10.07;;;1.40;99.90;;;;;;5047611;28;20249;-69
2022/01/13 07:55:31;;;;;;;15.80;10.27;;;1.50;99.90;;;;;;5052378;28;20210;-70
2022/01/13 07:58:00;;;;;;;20.77;11.23;;;1.50;99.90;;;;;;5054086;28;20320;-71
2022/01/13 08:00:26;;;;;;;16.87;10.30;;;1.50;99.90;;;;;;5053493;28;20269;-70
2022/01/13 08:02:53;;;;;;;17.53;11.30;;;1.50;99.90;;;;;;5053505;28;20206;-70
2022/01/13 08:05:20;;;;;;;18.30;11.20;;;1.50;99.90;;;;;;5053297;28;20311;-71
2022/01/13 08:07:47;;;;;;;20.03;10.57;;;1.60;99.90;;;;;;5054094;28;20245;-71
2022/01/13 08:10:14;;;;;;;20.47;11.83;;;1.60;99.90;;;;;;5052983;28;20551;-69
2022/01/13 08:12:42;;;;;;;22.27;11.63;;;1.60;99.90;;;;;;5055246;28;20230;-70
2022/01/13 08:15:14;;;;;;;15.87;10.57;;;1.60;99.90;;;;;;5055174;28;20206;-71
2022/01/13 08:20:26;;;;;;;18.50;10.17;;;1.60;99.90;;;;;;5052249;28;20213;-67
2022/01/13 08:22:53;;;;;;;25.47;11.77;;;1.60;99.90;;;;;;5045897;28;20697;-69
2022/01/13 08:25:21;;;;;;;27.80;11.77;;;1.70;99.90;;;;;;5057781;28;20206;-69
2022/01/13 08:27:48;;;;;;;18.00;11.20;;;1.60;99.90;;;;;;5046308;28;20236;-69
2022/01/13 08:30:16;;;;;;;19.30;11.40;;;1.70;99.90;;;;;;5051988;28;20220;-70
2022/01/13 08:32:43;;;;;;;19.40;11.53;;;1.70;99.90;;;;;;5051856;28;20198;-70
2022/01/13 08:35:11;;;;;;;19.87;11.63;;;1.80;99.90;;;;;;5051574;28;20297;-68
2022/01/13 08:37:38;;;;;;;18.60;12.00;;;1.70;99.90;;;;;;5050403;28;20636;-69
2022/01/13 08:40:08;;;;;;;19.67;11.70;;;1.80;99.90;;;;;;5051228;28;20249;-69
2022/01/13 08:42:36;;;;;;;18.93;11.10;;;1.80;99.90;;;;;;5046441;28;20680;-68
2022/01/13 08:45:05;;;;;;;19.53;11.47;;;1.80;99.90;;;;;;5049829;28;20693;-69
2022/01/13 08:47:33;;;;;;;17.00;9.67;;;1.80;99.90;;;;;;5050092;28;20571;-69
2022/01/13 08:50:00;;;;;;;19.20;10.83;;;1.80;99.90;;;;;;5050689;28;20206;-68
2022/01/13 08:52:27;;;;;;;18.87;11.07;;;1.80;99.90;;;;;;5051386;28;20740;-69
2022/01/13 08:54:55;;;;;;;22.43;11.70;;;1.90;99.90;;;;;;5050643;28;20414;-69
2022/01/13 08:57:22;;;;;;;18.87;11.10;;;1.80;99.90;;;;;;5046365;28;20511;-70
2022/01/13 08:59:49;;;;;;;19.70;10.57;;;1.90;99.90;;;;;;5050808;28;20687;-69
2022/01/13 09:02:16;;;;;;;20.77;11.00;;;1.90;99.90;;;;;;5051703;28;20236;-70
2022/01/13 09:04:44;;;;;;;17.23;9.73;;;1.90;99.90;;;;;;5053889;28;20210;-70
2022/01/13 09:07:11;;;;;;;19.80;12.07;;;1.90;99.90;;;;;;5052096;28;20746;-70
2022/01/13 09:09:38;;;;;;;19.63;10.87;;;1.90;99.90;;;;;;5052429;28;20194;-69
2022/01/13 09:12:06;;;;;;;20.00;12.03;;;1.90;99.90;;;;;;5052162;28;20245;-69
2022/01/13 09:14:33;;;;;;;20.27;11.60;;;1.90;99.90;;;;;;5044837;28;20203;-69
2022/01/13 09:17:01;;;;;;;20.73;11.77;;;1.90;99.90;;;;;;5048946;28;20246;-70
2022/01/13 09:19:28;;;;;;;20.57;11.93;;;2.00;99.90;;;;;;5049774;28;20585;-70
2022/01/13 09:21:57;;;;;;;20.83;12.63;;;2.00;99.90;;;;;;5054147;28;20247;-70
2022/01/13 09:24:24;;;;;;;19.63;11.90;;;2.00;99.90;;;;;;5051615;28;20232;-69
2022/01/13 09:26:51;;;;;;;20.63;11.70;;;2.00;99.90;;;;;;5048937;28;20220;-69
2022/01/13 09:29:18;;;;;;;22.30;11.43;;;2.00;99.90;;;;;;5053904;28;20284;-71
2022/01/13 09:31:45;;;;;;;20.67;11.70;;;2.10;99.90;;;;;;5059672;28;20209;-70
2022/01/13 09:34:13;;;;;;;18.40;11.67;;;2.10;99.90;;;;;;5052191;28;20209;-69
2022/01/13 09:36:40;;;;;;;18.80;12.03;;;2.10;99.90;;;;;;5050147;28;20238;-69
2022/01/13 09:39:10;;;;;;;26.60;13.30;;;2.10;99.90;;;;;;5052769;28;20202;-70
2022/01/13 09:41:40;;;;;;;20.60;11.97;;;2.20;99.90;;;;;;5046391;28;20229;-69
2022/01/13 09:44:08;;;;;;;22.37;12.17;;;2.20;99.90;;;;;;5046904;28;20265;-71
2022/01/13 09:46:35;;;;;;;19.00;12.10;;;2.20;99.90;;;;;;5050556;28;20216;-70
2022/01/13 09:49:04;;;;;;;21.17;11.97;;;2.20;99.90;;;;;;5047174;28;20583;-70
2022/01/13 09:51:33;;;;;;;22.77;11.63;;;2.30;99.90;;;;;;5055512;28;20210;-70
2022/01/13 09:54:00;;;;;;;17.80;11.00;;;2.30;99.90;;;;;;5056302;28;20289;-70
2022/01/13 09:56:28;;;;;;;19.13;11.13;;;2.30;99.90;;;;;;5065364;28;20236;-70
2022/01/13 09:58:55;;;;;;;22.10;11.57;;;2.30;99.90;;;;;;5055088;28;20349;-70
2022/01/13 10:01:22;;;;;;;17.70;11.10;;;2.30;99.90;;;;;;5054334;28;20236;-70
2022/01/13 10:03:49;;;;;;;18.43;10.30;;;2.30;99.90;;;;;;5054343;28;20217;-70
2022/01/13 10:06:18;;;;;;;17.70;10.53;;;2.30;99.90;;;;;;5054227;28;20301;-69
2022/01/13 10:08:47;;;;;;;16.73;10.33;;;2.40;99.90;;;;;;5054240;28;20220;-71
2022/01/13 10:11:35;;;;;;;19.33;10.20;;;2.40;99.90;;;;;;5051477;28;20305;-71
2022/01/13 10:14:09;;;;;;;18.30;9.87;;;2.50;99.90;;;;;;5051842;28;20548;-70
2022/01/13 10:16:43;;;;;;;19.87;10.50;;;2.40;99.90;;;;;;5050003;28;20217;-70
2022/01/13 10:19:26;;;;;;;19.33;10.73;;;2.40;99.90;;;;;;5049677;28;20206;-69
2022/01/13 10:21:56;;;;;;;17.97;11.03;;;2.40;99.90;;;;;;5049533;28;20216;-70
2022/01/13 10:24:26;;;;;;;17.97;11.03;;;2.40;99.90;;;;;;5055329;28;20210;-70
2022/01/13 10:27:04;;;;;;;18.30;10.90;;;2.50;99.90;;;;;;5055203;28;20288;-69
2022/01/13 10:29:46;;;;;;;17.87;10.80;;;2.50;99.90;;;;;;5055461;28;20393;-70
2022/01/13 10:32:15;;;;;;;19.87;10.93;;;2.50;99.90;;;;;;5049387;28;20208;-69
2022/01/13 10:34:45;;;;;;;16.33;10.83;;;2.50;99.90;;;;;;5056834;28;20216;-69
2022/01/13 10:37:14;;;;;;;19.17;10.67;;;2.50;99.90;;;;;;5047392;28;20202;-69
2022/01/13 10:39:57;;;;;;;16.97;10.87;;;2.50;99.90;;;;;;5054631;28;20229;-69
2022/01/13 10:45:33;;;;;;;18.90;10.30;;;2.60;99.90;;;;;;5042866;28;20427;-70
2022/01/13 10:48:04;;;;;;;18.50;10.30;;;2.60;99.90;;;;;;5052499;28;20198;-69
2022/01/13 10:50:33;;;;;;;18.97;9.93;;;2.70;99.90;;;;;;5052837;28;20224;-69
2022/01/13 10:53:03;;;;;;;19.37;10.83;;;2.60;99.90;;;;;;5053186;28;20798;-70
2022/01/13 10:55:31;;;;;;;16.37;8.77;;;2.60;99.90;;;;;;5053424;28;20214;-69
2022/01/13 10:57:59;;;;;;;17.77;10.37;;;2.70;99.90;;;;;;5053966;28;20233;-68
2022/01/13 11:00:30;;;;;;;15.87;9.50;;;2.70;99.90;;;;;;5051940;28;20229;-70
2022/01/13 11:03:05;;;;;;;15.67;9.03;;;2.70;99.90;;;;;;5052093;28;20206;-69
2022/01/13 11:05:34;;;;;;;14.47;9.90;;;2.70;99.90;;;;;;5052781;28;20580;-69
2022/01/13 11:08:04;;;;;;;18.73;9.23;;;2.70;99.90;;;;;;5053317;28;20210;-70
2022/01/13 11:10:31;;;;;;;16.87;9.87;;;2.80;99.90;;;;;;5052374;28;20283;-70
2022/01/13 11:13:02;;;;;;;14.27;9.17;;;2.80;99.90;;;;;;5048233;28;20202;-69
2022/01/13 11:15:29;;;;;;;16.03;9.93;;;2.80;99.90;;;;;;5048908;28;20202;-69
2022/01/13 11:17:58;;;;;;;16.13;10.23;;;2.80;99.90;;;;;;5050778;28;20210;-69
2022/01/13 11:20:27;;;;;;;16.70;9.40;;;2.80;99.90;;;;;;5051307;28;20229;-70
2022/01/13 11:22:56;;;;;;;15.30;9.80;;;2.90;99.90;;;;;;5050492;28;20274;-69
2022/01/13 11:25:26;;;;;;;15.27;8.80;;;2.90;99.90;;;;;;5047481;28;20297;-69
2022/01/13 11:27:54;;;;;;;14.13;8.83;;;2.90;99.90;;;;;;5048323;28;20210;-69
2022/01/13 11:30:24;;;;;;;14.93;9.03;;;2.90;99.90;;;;;;5052863;28;20198;-70
2022/01/13 11:32:52;;;;;;;15.17;9.20;;;2.90;99.90;;;;;;5051768;28;20216;-69
2022/01/13 11:35:26;;;;;;;12.03;7.40;;;2.90;99.90;;;;;;5051774;28;20279;-68
2022/01/13 11:37:56;;;;;;;12.83;8.10;;;2.90;99.90;;;;;;5052725;28;20266;-70
2022/01/13 11:40:37;;;;;;;15.30;8.73;;;2.90;99.90;;;;;;5054301;28;20213;-69
2022/01/13 11:43:07;;;;;;;17.23;8.50;;;2.90;99.90;;;;;;5052927;28;20286;-70
2022/01/13 11:45:41;;;;;;;14.57;8.57;;;3.00;99.90;;;;;;5043501;28;20287;-69
2022/01/13 11:48:17;;;;;;;14.80;9.43;;;2.90;99.90;;;;;;5051553;28;20281;-70
2022/01/13 11:50:49;;;;;;;14.33;9.20;;;3.00;99.90;;;;;;5051143;28;20635;-69
2022/01/13 11:53:24;;;;;;;15.13;8.80;;;3.10;99.90;;;;;;5051209;28;20549;-70
2022/01/13 11:55:54;;;;;;;15.47;9.07;;;3.00;99.90;;;;;;5052366;28;20288;-69
2022/01/13 11:58:25;;;;;;;15.50;9.03;;;3.00;99.90;;;;;;5052017;28;20230;-70
2022/01/13 12:00:55;;;;;;;12.80;8.30;;;3.10;99.90;;;;;;5052471;28;20312;-70
2022/01/13 12:03:27;;;;;;;15.30;8.77;;;3.10;99.90;;;;;;5052381;28;20562;-71
2022/01/13 12:05:55;;;;;;;16.37;9.73;;;3.10;99.90;;;;;;5053258;28;20766;-70
2022/01/13 12:08:45;;;;;;;14.53;8.80;;;3.10;99.90;;;;;;5052401;28;20209;-69
2022/01/13 12:11:39;;;;;;;15.07;8.77;;;3.10;99.90;;;;;;5042867;28;20348;-69
2022/01/13 12:14:34;;;;;;;15.83;9.00;;;3.20;99.90;;;;;;5051599;28;20615;-69
2022/01/13 12:17:06;;;;;;;14.80;8.77;;;3.10;99.90;;;;;;5052437;28;20217;-71
2022/01/13 12:19:37;;;;;;;14.80;9.40;;;3.20;99.90;;;;;;5043770;28;20659;-68
2022/01/13 12:22:09;;;;;;;13.53;8.77;;;3.20;99.90;;;;;;5050512;28;20205;-69
2022/01/13 12:24:49;;;;;;;14.20;8.40;;;3.20;99.90;;;;;;5046204;28;20213;-69
2022/01/13 12:27:17;;;;;;;11.87;7.77;;;3.20;99.90;;;;;;5050316;28;20198;-68
2022/01/13 12:29:49;;;;;;;13.30;7.83;;;3.20;99.90;;;;;;5048218;28;20206;-68
2022/01/13 12:32:25;;;;;;;11.47;7.33;;;3.20;99.90;;;;;;5049380;28;20751;-69
2022/01/13 12:34:52;;;;;;;12.80;7.77;;;3.20;99.90;;;;;;5050405;28;20546;-68
2022/01/13 12:37:29;;;;;;;14.53;7.83;;;3.20;99.90;;;;;;5049825;28;20248;-67
2022/01/13 12:40:10;;;;;;;15.57;7.97;;;3.20;99.90;;;;;;5050833;28;20208;-68
2022/01/13 12:42:41;;;;;;;12.93;8.27;;;3.30;99.90;;;;;;5047397;28;20202;-69
2022/01/13 12:48:11;;;;;;;14.40;7.73;;;3.20;99.90;;;;;;4988104;28;20231;-69
2022/01/13 12:50:40;;;;;;;11.60;7.73;;;3.30;99.90;;;;;;4988292;28;20212;-69
2022/01/13 12:53:15;;;;;;;16.43;9.33;;;3.30;99.90;;;;;;5016917;28;20210;-69
2022/01/13 12:55:47;;;;;;;14.13;8.40;;;3.30;99.90;;;;;;5051217;28;20754;-69
2022/01/13 12:58:14;;;;;;;11.70;7.17;;;3.30;99.90;;;;;;5051755;28;20201;-70
2022/01/13 13:00:40;;;;;;;12.63;7.53;;;3.30;99.90;;;;;;5046172;28;20320;-69
2022/01/13 13:03:09;;;;;;;11.90;7.57;;;3.30;99.90;;;;;;5053192;28;20205;-68
2022/01/13 13:05:45;;;;;;;11.73;8.00;;;3.30;99.90;;;;;;5052525;28;20206;-67
2022/01/13 13:08:15;;;;;;;13.77;7.37;;;3.30;99.90;;;;;;5051728;28;20737;-67